sensor_id;sensor_type;location;lat;lon;timestamp;temperature;humidity
31819;DHT22;18384;48.860;9.188;2024-03-08T00:00:15;6.30;95.10
31819;DHT22;18384;48.860;9.188;2024-03-08T00:02:47;6.20;95.20
31819;DHT22;18384;48.860;9.188;2024-03-08T00:05:14;6.20;95.20
31819;DHT22;18384;48.860;9.188;2024-03-08T00:07:41;6.20;95.20
31819;DHT22;18384;48.860;9.188;2024-03-08T00:10:09;6.10;95.30
31819;DHT22;18384;48.860;9.188;2024-03-08T00:12:40;6.20;95.30
31819;DHT22;18384;48.860;9.188;2024-03-08T00:15:10;6.10;95.20
31819;DHT22;18384;48.860;9.188;2024-03-08T00:17:39;6.10;95.30
31819;DHT22;18384;48.860;9.188;2024-03-08T00:20:06;6.10;95.20
31819;DHT22;18384;48.860;9.188;2024-03-08T00:22:39;6.10;95.50
31819;DHT22;18384;48.860;9.188;2024-03-08T00:25:06;6.10;95.30
31819;DHT22;18384;48.860;9.188;2024-03-08T00:27:37;6.10;95.40
31819;DHT22;18384;48.860;9.188;2024-03-08T00:30:03;6.00;95.20
31819;DHT22;18384;48.860;9.188;2024-03-08T00:32:31;6.00;95.20
31819;DHT22;18384;48.860;9.188;2024-03-08T00:34:57;6.00;95.20
31819;DHT22;18384;48.860;9.188;2024-03-08T00:37:23;6.00;95.10
31819;DHT22;18384;48.860;9.188;2024-03-08T00:39:51;5.90;95.10
31819;DHT22;18384;48.860;9.188;2024-03-08T00:42:18;5.90;95.10
31819;DHT22;18384;48.860;9.188;2024-03-08T00:44:44;5.90;95.20
31819;DHT22;18384;48.860;9.188;2024-03-08T00:47:11;5.90;95.20
31819;DHT22;18384;48.860;9.188;2024-03-08T00:49:37;5.90;95.40
31819;DHT22;18384;48.860;9.188;2024-03-08T00:52:05;5.80;95.40
31819;DHT22;18384;48.860;9.188;2024-03-08T00:54:34;5.80;95.20
31819;DHT22;18384;48.860;9.188;2024-03-08T00:57:12;5.80;95.20
31819;DHT22;18384;48.860;9.188;2024-03-08T00:59:38;5.80;95.20
31819;DHT22;18384;48.860;9.188;2024-03-08T01:02:04;5.80;95.00
31819;DHT22;18384;48.860;9.188;2024-03-08T01:04:31;5.80;95.20
31819;DHT22;18384;48.860;9.188;2024-03-08T01:06:59;5.80;95.40
31819;DHT22;18384;48.860;9.188;2024-03-08T01:09:26;5.80;95.30
31819;DHT22;18384;48.860;9.188;2024-03-08T01:11:55;5.70;95.50
31819;DHT22;18384;48.860;9.188;2024-03-08T01:14:23;5.70;95.30
31819;DHT22;18384;48.860;9.188;2024-03-08T01:16:49;5.70;95.30
31819;DHT22;18384;48.860;9.188;2024-03-08T01:19:15;5.70;95.30
31819;DHT22;18384;48.860;9.188;2024-03-08T01:21:42;5.70;95.30
31819;DHT22;18384;48.860;9.188;2024-03-08T01:24:08;5.60;95.30
31819;DHT22;18384;48.860;9.188;2024-03-08T01:26:34;5.60;95.20
31819;DHT22;18384;48.860;9.188;2024-03-08T01:29:01;5.60;95.30
31819;DHT22;18384;48.860;9.188;2024-03-08T01:31:31;5.60;95.30
31819;DHT22;18384;48.860;9.188;2024-03-08T01:33:59;5.60;95.30
31819;DHT22;18384;48.860;9.188;2024-03-08T01:36:25;5.60;95.40
31819;DHT22;18384;48.860;9.188;2024-03-08T01:38:51;5.50;95.30
31819;DHT22;18384;48.860;9.188;2024-03-08T01:41:18;5.50;95.30
31819;DHT22;18384;48.860;9.188;2024-03-08T01:43:44;5.50;95.40
31819;DHT22;18384;48.860;9.188;2024-03-08T01:46:12;5.50;95.30
31819;DHT22;18384;48.860;9.188;2024-03-08T01:48:42;5.40;95.40
31819;DHT22;18384;48.860;9.188;2024-03-08T01:51:09;5.40;95.40
31819;DHT22;18384;48.860;9.188;2024-03-08T01:53:37;5.40;95.40
31819;DHT22;18384;48.860;9.188;2024-03-08T01:56:05;5.40;95.40
31819;DHT22;18384;48.860;9.188;2024-03-08T01:58:32;5.40;95.50
31819;DHT22;18384;48.860;9.188;2024-03-08T02:00:59;5.40;95.40
31819;DHT22;18384;48.860;9.188;2024-03-08T02:03:26;5.30;95.30
31819;DHT22;18384;48.860;9.188;2024-03-08T02:05:52;5.30;95.40
31819;DHT22;18384;48.860;9.188;2024-03-08T02:08:19;5.30;95.40
31819;DHT22;18384;48.860;9.188;2024-03-08T02:10:48;5.30;95.50
31819;DHT22;18384;48.860;9.188;2024-03-08T02:13:15;5.30;95.40
31819;DHT22;18384;48.860;9.188;2024-03-08T02:15:55;5.30;95.50
31819;DHT22;18384;48.860;9.188;2024-03-08T02:18:22;5.30;95.60
31819;DHT22;18384;48.860;9.188;2024-03-08T02:20:56;5.20;95.50
31819;DHT22;18384;48.860;9.188;2024-03-08T02:23:26;5.30;95.50
31819;DHT22;18384;48.860;9.188;2024-03-08T02:25:54;5.20;95.40
31819;DHT22;18384;48.860;9.188;2024-03-08T02:28:21;5.20;95.30
31819;DHT22;18384;48.860;9.188;2024-03-08T02:30:48;5.20;95.30
31819;DHT22;18384;48.860;9.188;2024-03-08T02:33:15;5.20;95.30
31819;DHT22;18384;48.860;9.188;2024-03-08T02:35:46;5.20;95.30
31819;DHT22;18384;48.860;9.188;2024-03-08T02:38:17;5.20;95.40
31819;DHT22;18384;48.860;9.188;2024-03-08T02:40:46;5.20;95.40
31819;DHT22;18384;48.860;9.188;2024-03-08T02:43:14;5.20;95.50
31819;DHT22;18384;48.860;9.188;2024-03-08T02:45:41;5.20;95.30
31819;DHT22;18384;48.860;9.188;2024-03-08T02:48:08;5.30;95.30
31819;DHT22;18384;48.860;9.188;2024-03-08T02:50:35;5.20;95.20
31819;DHT22;18384;48.860;9.188;2024-03-08T02:53:02;5.20;95.20
31819;DHT22;18384;48.860;9.188;2024-03-08T02:55:29;5.20;95.30
31819;DHT22;18384;48.860;9.188;2024-03-08T02:57:55;5.20;95.20
31819;DHT22;18384;48.860;9.188;2024-03-08T03:00:22;5.20;95.20
31819;DHT22;18384;48.860;9.188;2024-03-08T03:02:51;5.10;95.20
31819;DHT22;18384;48.860;9.188;2024-03-08T03:05:22;5.10;95.10
31819;DHT22;18384;48.860;9.188;2024-03-08T03:07:48;5.10;95.00
31819;DHT22;18384;48.860;9.188;2024-03-08T03:10:16;5.10;95.00
31819;DHT22;18384;48.860;9.188;2024-03-08T03:12:42;5.10;95.00
31819;DHT22;18384;48.860;9.188;2024-03-08T03:15:08;5.10;95.00
31819;DHT22;18384;48.860;9.188;2024-03-08T03:17:35;5.00;95.00
31819;DHT22;18384;48.860;9.188;2024-03-08T03:20:02;5.00;95.00
31819;DHT22;18384;48.860;9.188;2024-03-08T03:22:34;5.00;95.00
31819;DHT22;18384;48.860;9.188;2024-03-08T03:25:00;4.80;95.20
31819;DHT22;18384;48.860;9.188;2024-03-08T03:27:28;4.90;95.20
31819;DHT22;18384;48.860;9.188;2024-03-08T03:29:56;4.90;95.40
31819;DHT22;18384;48.860;9.188;2024-03-08T03:32:23;4.90;95.10
31819;DHT22;18384;48.860;9.188;2024-03-08T03:34:49;5.00;95.00
31819;DHT22;18384;48.860;9.188;2024-03-08T03:37:21;4.90;95.00
31819;DHT22;18384;48.860;9.188;2024-03-08T03:39:48;4.90;95.10
31819;DHT22;18384;48.860;9.188;2024-03-08T03:42:15;4.90;94.90
31819;DHT22;18384;48.860;9.188;2024-03-08T03:44:45;4.90;95.00
31819;DHT22;18384;48.860;9.188;2024-03-08T03:47:13;4.90;95.00
31819;DHT22;18384;48.860;9.188;2024-03-08T03:49:41;4.80;95.00
31819;DHT22;18384;48.860;9.188;2024-03-08T03:52:07;4.80;95.10
31819;DHT22;18384;48.860;9.188;2024-03-08T03:54:33;4.80;95.20
31819;DHT22;18384;48.860;9.188;2024-03-08T03:56:59;4.70;95.20
31819;DHT22;18384;48.860;9.188;2024-03-08T03:59:26;4.70;95.20
31819;DHT22;18384;48.860;9.188;2024-03-08T04:01:53;4.70;95.10
31819;DHT22;18384;48.860;9.188;2024-03-08T04:04:20;4.70;95.10
31819;DHT22;18384;48.860;9.188;2024-03-08T04:06:50;4.70;95.00
31819;DHT22;18384;48.860;9.188;2024-03-08T04:09:16;4.70;95.40
31819;DHT22;18384;48.860;9.188;2024-03-08T04:11:45;4.70;95.20
31819;DHT22;18384;48.860;9.188;2024-03-08T04:14:11;4.70;95.00
31819;DHT22;18384;48.860;9.188;2024-03-08T04:16:37;4.70;95.10
31819;DHT22;18384;48.860;9.188;2024-03-08T04:19:03;4.70;95.10
31819;DHT22;18384;48.860;9.188;2024-03-08T04:21:30;4.70;95.00
31819;DHT22;18384;48.860;9.188;2024-03-08T04:23:56;4.90;95.20
31819;DHT22;18384;48.860;9.188;2024-03-08T04:26:23;4.60;95.20
31819;DHT22;18384;48.860;9.188;2024-03-08T04:28:49;4.60;95.00
31819;DHT22;18384;48.860;9.188;2024-03-08T04:31:15;4.70;95.20
31819;DHT22;18384;48.860;9.188;2024-03-08T04:33:41;4.70;94.90
31819;DHT22;18384;48.860;9.188;2024-03-08T04:36:07;4.50;95.10
31819;DHT22;18384;48.860;9.188;2024-03-08T04:38:33;4.40;95.20
31819;DHT22;18384;48.860;9.188;2024-03-08T04:41:00;4.60;95.10
31819;DHT22;18384;48.860;9.188;2024-03-08T04:43:34;4.60;95.10
31819;DHT22;18384;48.860;9.188;2024-03-08T04:46:12;4.60;95.20
31819;DHT22;18384;48.860;9.188;2024-03-08T04:48:38;4.50;95.30
31819;DHT22;18384;48.860;9.188;2024-03-08T04:51:14;4.50;95.20
31819;DHT22;18384;48.860;9.188;2024-03-08T04:53:43;4.60;95.10
31819;DHT22;18384;48.860;9.188;2024-03-08T04:56:10;4.60;95.20
31819;DHT22;18384;48.860;9.188;2024-03-08T04:58:37;4.60;95.10
31819;DHT22;18384;48.860;9.188;2024-03-08T05:01:06;4.60;95.10
31819;DHT22;18384;48.860;9.188;2024-03-08T05:03:41;4.60;95.00
31819;DHT22;18384;48.860;9.188;2024-03-08T05:06:07;4.60;95.10
31819;DHT22;18384;48.860;9.188;2024-03-08T05:08:33;4.60;95.00
31819;DHT22;18384;48.860;9.188;2024-03-08T05:11:00;4.60;95.00
31819;DHT22;18384;48.860;9.188;2024-03-08T05:13:30;4.60;94.80
31819;DHT22;18384;48.860;9.188;2024-03-08T05:15:56;4.50;94.80
31819;DHT22;18384;48.860;9.188;2024-03-08T05:18:26;4.50;94.90
31819;DHT22;18384;48.860;9.188;2024-03-08T05:20:54;4.50;94.90
31819;DHT22;18384;48.860;9.188;2024-03-08T05:23:20;4.50;95.10
31819;DHT22;18384;48.860;9.188;2024-03-08T05:25:47;4.40;95.00
31819;DHT22;18384;48.860;9.188;2024-03-08T05:28:15;4.40;95.30
31819;DHT22;18384;48.860;9.188;2024-03-08T05:30:44;4.40;95.20
31819;DHT22;18384;48.860;9.188;2024-03-08T05:33:14;3.30;94.80
31819;DHT22;18384;48.860;9.188;2024-03-08T05:35:41;4.40;95.10
31819;DHT22;18384;48.860;9.188;2024-03-08T05:38:07;4.40;95.20
31819;DHT22;18384;48.860;9.188;2024-03-08T05:40:33;5.10;95.40
31819;DHT22;18384;48.860;9.188;2024-03-08T05:42:59;4.30;95.30
31819;DHT22;18384;48.860;9.188;2024-03-08T05:45:25;4.30;95.30
31819;DHT22;18384;48.860;9.188;2024-03-08T05:47:51;4.30;95.30
31819;DHT22;18384;48.860;9.188;2024-03-08T05:50:18;4.30;95.40
31819;DHT22;18384;48.860;9.188;2024-03-08T05:52:45;4.30;95.40
31819;DHT22;18384;48.860;9.188;2024-03-08T05:55:14;4.30;95.40
31819;DHT22;18384;48.860;9.188;2024-03-08T05:57:41;4.30;95.50
31819;DHT22;18384;48.860;9.188;2024-03-08T06:00:10;4.30;95.30
31819;DHT22;18384;48.860;9.188;2024-03-08T06:02:38;4.30;95.10
31819;DHT22;18384;48.860;9.188;2024-03-08T06:05:10;4.30;95.30
31819;DHT22;18384;48.860;9.188;2024-03-08T06:07:37;4.30;95.30
31819;DHT22;18384;48.860;9.188;2024-03-08T06:10:08;2.90;94.90
31819;DHT22;18384;48.860;9.188;2024-03-08T06:12:38;4.40;95.40
31819;DHT22;18384;48.860;9.188;2024-03-08T06:15:08;4.40;95.50
31819;DHT22;18384;48.860;9.188;2024-03-08T06:17:35;4.40;95.40
31819;DHT22;18384;48.860;9.188;2024-03-08T06:20:02;4.50;95.60
31819;DHT22;18384;48.860;9.188;2024-03-08T06:22:30;4.50;95.30
31819;DHT22;18384;48.860;9.188;2024-03-08T06:27:44;4.20;95.10
31819;DHT22;18384;48.860;9.188;2024-03-08T06:30:13;4.40;95.30
31819;DHT22;18384;48.860;9.188;2024-03-08T06:32:41;4.50;95.50
31819;DHT22;18384;48.860;9.188;2024-03-08T06:35:09;4.50;95.40
31819;DHT22;18384;48.860;9.188;2024-03-08T06:37:36;4.70;95.70
31819;DHT22;18384;48.860;9.188;2024-03-08T06:40:03;4.40;95.50
31819;DHT22;18384;48.860;9.188;2024-03-08T06:42:29;4.50;95.60
31819;DHT22;18384;48.860;9.188;2024-03-08T06:45:01;4.50;95.60
31819;DHT22;18384;48.860;9.188;2024-03-08T06:47:31;4.50;95.30
31819;DHT22;18384;48.860;9.188;2024-03-08T06:50:03;4.60;95.30
31819;DHT22;18384;48.860;9.188;2024-03-08T06:52:29;4.20;95.40
31819;DHT22;18384;48.860;9.188;2024-03-08T06:54:56;4.70;95.20
31819;DHT22;18384;48.860;9.188;2024-03-08T06:57:22;4.80;95.20
31819;DHT22;18384;48.860;9.188;2024-03-08T06:59:49;4.90;95.00
31819;DHT22;18384;48.860;9.188;2024-03-08T07:02:16;5.00;95.00
31819;DHT22;18384;48.860;9.188;2024-03-08T07:04:42;5.00;94.90
31819;DHT22;18384;48.860;9.188;2024-03-08T07:07:08;5.10;95.00
31819;DHT22;18384;48.860;9.188;2024-03-08T07:09:36;5.10;95.00
31819;DHT22;18384;48.860;9.188;2024-03-08T07:12:02;5.30;94.90
31819;DHT22;18384;48.860;9.188;2024-03-08T07:14:29;5.50;94.80
31819;DHT22;18384;48.860;9.188;2024-03-08T07:16:56;5.50;94.80
31819;DHT22;18384;48.860;9.188;2024-03-08T07:19:22;5.60;94.60
31819;DHT22;18384;48.860;9.188;2024-03-08T07:21:49;5.60;94.60
31819;DHT22;18384;48.860;9.188;2024-03-08T07:24:15;5.60;94.50
31819;DHT22;18384;48.860;9.188;2024-03-08T07:27:00;5.60;94.40
31819;DHT22;18384;48.860;9.188;2024-03-08T07:29:26;5.60;94.40
31819;DHT22;18384;48.860;9.188;2024-03-08T07:31:54;5.70;94.50
31819;DHT22;18384;48.860;9.188;2024-03-08T07:34:53;5.70;94.60
31819;DHT22;18384;48.860;9.188;2024-03-08T07:37:19;5.80;94.40
31819;DHT22;18384;48.860;9.188;2024-03-08T07:39:46;5.90;94.30
31819;DHT22;18384;48.860;9.188;2024-03-08T07:42:12;6.00;94.30
31819;DHT22;18384;48.860;9.188;2024-03-08T07:44:38;6.10;94.10
31819;DHT22;18384;48.860;9.188;2024-03-08T07:47:05;6.10;94.00
31819;DHT22;18384;48.860;9.188;2024-03-08T07:49:35;6.20;93.90
31819;DHT22;18384;48.860;9.188;2024-03-08T07:52:03;6.20;94.10
31819;DHT22;18384;48.860;9.188;2024-03-08T07:54:30;6.20;94.10
31819;DHT22;18384;48.860;9.188;2024-03-08T07:56:56;6.30;93.80
31819;DHT22;18384;48.860;9.188;2024-03-08T07:59:23;6.20;93.90
31819;DHT22;18384;48.860;9.188;2024-03-08T08:01:49;6.20;94.00
31819;DHT22;18384;48.860;9.188;2024-03-08T08:04:15;6.30;93.70
31819;DHT22;18384;48.860;9.188;2024-03-08T08:06:43;6.30;93.60
31819;DHT22;18384;48.860;9.188;2024-03-08T08:09:09;6.20;93.30
31819;DHT22;18384;48.860;9.188;2024-03-08T08:11:42;6.20;93.70
31819;DHT22;18384;48.860;9.188;2024-03-08T08:14:10;6.30;93.50
31819;DHT22;18384;48.860;9.188;2024-03-08T08:16:37;6.20;93.70
31819;DHT22;18384;48.860;9.188;2024-03-08T08:19:03;6.30;93.80
31819;DHT22;18384;48.860;9.188;2024-03-08T08:21:36;6.30;93.80
31819;DHT22;18384;48.860;9.188;2024-03-08T08:24:05;6.40;93.60
31819;DHT22;18384;48.860;9.188;2024-03-08T08:26:32;6.50;93.40
31819;DHT22;18384;48.860;9.188;2024-03-08T08:29:02;6.50;93.40
31819;DHT22;18384;48.860;9.188;2024-03-08T08:31:28;6.60;93.40
31819;DHT22;18384;48.860;9.188;2024-03-08T08:33:54;7.60;93.80
31819;DHT22;18384;48.860;9.188;2024-03-08T08:36:26;6.60;93.70
31819;DHT22;18384;48.860;9.188;2024-03-08T08:38:52;6.60;93.10
31819;DHT22;18384;48.860;9.188;2024-03-08T08:41:22;6.60;93.10
31819;DHT22;18384;48.860;9.188;2024-03-08T08:43:48;8.30;93.50
31819;DHT22;18384;48.860;9.188;2024-03-08T08:46:18;7.80;93.50
31819;DHT22;18384;48.860;9.188;2024-03-08T08:48:44;6.50;93.30
31819;DHT22;18384;48.860;9.188;2024-03-08T08:51:13;6.40;93.30
31819;DHT22;18384;48.860;9.188;2024-03-08T08:53:41;6.50;93.40
31819;DHT22;18384;48.860;9.188;2024-03-08T08:56:13;6.40;93.10
31819;DHT22;18384;48.860;9.188;2024-03-08T08:58:40;6.30;93.70
31819;DHT22;18384;48.860;9.188;2024-03-08T09:01:08;6.20;93.60
31819;DHT22;18384;48.860;9.188;2024-03-08T09:03:36;6.40;93.50
31819;DHT22;18384;48.860;9.188;2024-03-08T09:06:04;6.50;93.60
31819;DHT22;18384;48.860;9.188;2024-03-08T09:08:30;6.50;93.20
31819;DHT22;18384;48.860;9.188;2024-03-08T09:11:00;6.60;93.20
31819;DHT22;18384;48.860;9.188;2024-03-08T09:13:26;6.70;93.20
31819;DHT22;18384;48.860;9.188;2024-03-08T09:15:53;6.70;93.00
31819;DHT22;18384;48.860;9.188;2024-03-08T09:18:19;6.60;93.20
31819;DHT22;18384;48.860;9.188;2024-03-08T09:20:45;6.70;93.10
31819;DHT22;18384;48.860;9.188;2024-03-08T09:23:13;6.70;93.20
31819;DHT22;18384;48.860;9.188;2024-03-08T09:25:40;6.70;93.20
31819;DHT22;18384;48.860;9.188;2024-03-08T09:28:06;6.70;92.80
31819;DHT22;18384;48.860;9.188;2024-03-08T09:30:32;6.80;93.00
31819;DHT22;18384;48.860;9.188;2024-03-08T09:33:00;6.90;93.00
31819;DHT22;18384;48.860;9.188;2024-03-08T09:35:27;7.00;93.10
31819;DHT22;18384;48.860;9.188;2024-03-08T09:37:55;7.00;93.00
31819;DHT22;18384;48.860;9.188;2024-03-08T09:40:22;7.10;92.60
31819;DHT22;18384;48.860;9.188;2024-03-08T09:42:52;7.10;92.40
31819;DHT22;18384;48.860;9.188;2024-03-08T09:45:20;7.10;92.60
31819;DHT22;18384;48.860;9.188;2024-03-08T09:47:50;7.20;92.40
31819;DHT22;18384;48.860;9.188;2024-03-08T09:50:16;7.10;92.40
31819;DHT22;18384;48.860;9.188;2024-03-08T09:52:43;7.10;92.80
31819;DHT22;18384;48.860;9.188;2024-03-08T09:55:12;7.10;92.60
31819;DHT22;18384;48.860;9.188;2024-03-08T09:57:42;7.20;92.90
31819;DHT22;18384;48.860;9.188;2024-03-08T10:00:27;7.30;92.20
31819;DHT22;18384;48.860;9.188;2024-03-08T10:03:02;7.30;92.50
31819;DHT22;18384;48.860;9.188;2024-03-08T10:05:30;7.50;92.50
31819;DHT22;18384;48.860;9.188;2024-03-08T10:07:58;7.40;92.10
31819;DHT22;18384;48.860;9.188;2024-03-08T10:10:24;7.60;92.50
31819;DHT22;18384;48.860;9.188;2024-03-08T10:12:51;7.70;92.00
31819;DHT22;18384;48.860;9.188;2024-03-08T10:15:18;7.70;92.40
31819;DHT22;18384;48.860;9.188;2024-03-08T10:17:47;7.70;91.90
31819;DHT22;18384;48.860;9.188;2024-03-08T10:20:19;7.70;91.80
31819;DHT22;18384;48.860;9.188;2024-03-08T10:22:47;7.60;92.00
31819;DHT22;18384;48.860;9.188;2024-03-08T10:25:16;7.70;91.70
31819;DHT22;18384;48.860;9.188;2024-03-08T10:27:43;7.80;92.00
31819;DHT22;18384;48.860;9.188;2024-03-08T10:30:15;7.90;91.70
31819;DHT22;18384;48.860;9.188;2024-03-08T10:32:48;8.00;91.90
31819;DHT22;18384;48.860;9.188;2024-03-08T10:35:14;8.00;91.60
31819;DHT22;18384;48.860;9.188;2024-03-08T10:37:47;8.10;92.00
31819;DHT22;18384;48.860;9.188;2024-03-08T10:40:19;8.20;91.50
31819;DHT22;18384;48.860;9.188;2024-03-08T10:42:57;8.20;91.20
31819;DHT22;18384;48.860;9.188;2024-03-08T10:45:38;8.20;91.50
31819;DHT22;18384;48.860;9.188;2024-03-08T10:48:29;8.20;91.70
31819;DHT22;18384;48.860;9.188;2024-03-08T10:51:05;8.40;91.60
31819;DHT22;18384;48.860;9.188;2024-03-08T10:53:34;8.40;91.40
31819;DHT22;18384;48.860;9.188;2024-03-08T10:56:04;8.40;91.20
31819;DHT22;18384;48.860;9.188;2024-03-08T10:58:30;8.50;90.80
31819;DHT22;18384;48.860;9.188;2024-03-08T11:00:57;8.50;90.70
31819;DHT22;18384;48.860;9.188;2024-03-08T11:03:44;8.50;90.70
31819;DHT22;18384;48.860;9.188;2024-03-08T11:06:30;8.50;90.90
31819;DHT22;18384;48.860;9.188;2024-03-08T11:09:35;8.50;91.10
31819;DHT22;18384;48.860;9.188;2024-03-08T11:12:27;8.60;91.20
31819;DHT22;18384;48.860;9.188;2024-03-08T11:15:12;8.70;90.60
31819;DHT22;18384;48.860;9.188;2024-03-08T11:17:48;8.70;90.80
31819;DHT22;18384;48.860;9.188;2024-03-08T11:20:19;8.60;90.80
31819;DHT22;18384;48.860;9.188;2024-03-08T11:22:54;8.70;90.90
31819;DHT22;18384;48.860;9.188;2024-03-08T11:25:40;8.80;91.20
31819;DHT22;18384;48.860;9.188;2024-03-08T11:28:14;8.90;91.00
31819;DHT22;18384;48.860;9.188;2024-03-08T11:31:26;8.80;90.60
31819;DHT22;18384;48.860;9.188;2024-03-08T11:33:54;8.60;90.70
31819;DHT22;18384;48.860;9.188;2024-03-08T11:36:23;8.50;91.20
31819;DHT22;18384;48.860;9.188;2024-03-08T11:38:52;8.40;91.30
31819;DHT22;18384;48.860;9.188;2024-03-08T11:41:21;8.30;91.10
31819;DHT22;18384;48.860;9.188;2024-03-08T11:43:49;8.20;91.30
31819;DHT22;18384;48.860;9.188;2024-03-08T11:46:24;8.10;91.30
31819;DHT22;18384;48.860;9.188;2024-03-08T11:48:54;8.00;91.60
31819;DHT22;18384;48.860;9.188;2024-03-08T11:51:23;7.90;91.90
31819;DHT22;18384;48.860;9.188;2024-03-08T11:53:50;8.00;92.10
31819;DHT22;18384;48.860;9.188;2024-03-08T11:56:16;7.90;92.10
31819;DHT22;18384;48.860;9.188;2024-03-08T11:58:53;7.90;91.80
31819;DHT22;18384;48.860;9.188;2024-03-08T12:01:24;8.00;91.90
31819;DHT22;18384;48.860;9.188;2024-03-08T12:03:55;8.10;92.10
31819;DHT22;18384;48.860;9.188;2024-03-08T12:06:26;8.10;91.90
31819;DHT22;18384;48.860;9.188;2024-03-08T12:08:53;8.10;92.10
31819;DHT22;18384;48.860;9.188;2024-03-08T12:11:20;8.10;92.50
31819;DHT22;18384;48.860;9.188;2024-03-08T12:13:57;8.20;92.00
31819;DHT22;18384;48.860;9.188;2024-03-08T12:16:24;8.20;91.90
31819;DHT22;18384;48.860;9.188;2024-03-08T12:18:51;8.30;92.30
31819;DHT22;18384;48.860;9.188;2024-03-08T12:21:19;8.30;92.20
31819;DHT22;18384;48.860;9.188;2024-03-08T12:24:07;8.30;92.00
31819;DHT22;18384;48.860;9.188;2024-03-08T12:26:38;8.30;92.20
31819;DHT22;18384;48.860;9.188;2024-03-08T12:29:19;8.40;92.00
31819;DHT22;18384;48.860;9.188;2024-03-08T12:31:55;8.40;92.20
31819;DHT22;18384;48.860;9.188;2024-03-08T12:34:23;8.50;91.80
31819;DHT22;18384;48.860;9.188;2024-03-08T12:36:51;8.40;92.00
31819;DHT22;18384;48.860;9.188;2024-03-08T12:39:20;8.50;91.90
31819;DHT22;18384;48.860;9.188;2024-03-08T12:41:54;8.50;92.00
31819;DHT22;18384;48.860;9.188;2024-03-08T12:44:20;8.60;91.80
31819;DHT22;18384;48.860;9.188;2024-03-08T12:46:50;8.60;92.30
31819;DHT22;18384;48.860;9.188;2024-03-08T12:49:17;8.60;91.80
31819;DHT22;18384;48.860;9.188;2024-03-08T12:51:46;8.60;92.10
31819;DHT22;18384;48.860;9.188;2024-03-08T12:54:12;8.60;92.00
31819;DHT22;18384;48.860;9.188;2024-03-08T12:56:38;8.60;91.90
31819;DHT22;18384;48.860;9.188;2024-03-08T12:59:06;8.70;92.30
31819;DHT22;18384;48.860;9.188;2024-03-08T13:01:34;8.70;92.20
31819;DHT22;18384;48.860;9.188;2024-03-08T13:04:04;8.60;92.00
31819;DHT22;18384;48.860;9.188;2024-03-08T13:06:33;8.70;91.90
31819;DHT22;18384;48.860;9.188;2024-03-08T13:08:59;8.70;91.90
31819;DHT22;18384;48.860;9.188;2024-03-08T13:11:31;8.80;91.80
31819;DHT22;18384;48.860;9.188;2024-03-08T13:14:06;8.80;92.00
31819;DHT22;18384;48.860;9.188;2024-03-08T13:16:32;8.90;91.40
31819;DHT22;18384;48.860;9.188;2024-03-08T13:19:00;8.90;91.50
31819;DHT22;18384;48.860;9.188;2024-03-08T13:21:26;9.00;91.60
31819;DHT22;18384;48.860;9.188;2024-03-08T13:23:52;9.00;91.70
31819;DHT22;18384;48.860;9.188;2024-03-08T13:26:19;9.10;91.60
31819;DHT22;18384;48.860;9.188;2024-03-08T13:28:49;9.10;91.40
31819;DHT22;18384;48.860;9.188;2024-03-08T13:31:22;9.10;91.00
31819;DHT22;18384;48.860;9.188;2024-03-08T13:33:48;9.20;91.40
31819;DHT22;18384;48.860;9.188;2024-03-08T13:36:15;9.10;91.60
31819;DHT22;18384;48.860;9.188;2024-03-08T13:38:48;9.20;91.60
31819;DHT22;18384;48.860;9.188;2024-03-08T13:41:15;9.20;91.40
31819;DHT22;18384;48.860;9.188;2024-03-08T13:43:46;9.20;90.90
31819;DHT22;18384;48.860;9.188;2024-03-08T13:46:15;9.30;91.00
31819;DHT22;18384;48.860;9.188;2024-03-08T13:48:42;9.30;91.30
31819;DHT22;18384;48.860;9.188;2024-03-08T13:51:09;9.30;91.30
31819;DHT22;18384;48.860;9.188;2024-03-08T13:53:40;9.30;91.10
31819;DHT22;18384;48.860;9.188;2024-03-08T13:56:07;9.30;91.00
31819;DHT22;18384;48.860;9.188;2024-03-08T13:58:36;9.40;91.20
31819;DHT22;18384;48.860;9.188;2024-03-08T14:01:02;9.40;91.10
31819;DHT22;18384;48.860;9.188;2024-03-08T14:03:31;9.40;91.00
31819;DHT22;18384;48.860;9.188;2024-03-08T14:05:58;9.40;90.90
31819;DHT22;18384;48.860;9.188;2024-03-08T14:08:25;9.40;91.00
31819;DHT22;18384;48.860;9.188;2024-03-08T14:10:52;9.40;91.10
31819;DHT22;18384;48.860;9.188;2024-03-08T14:13:19;9.40;91.10
31819;DHT22;18384;48.860;9.188;2024-03-08T14:15:46;9.40;90.90
31819;DHT22;18384;48.860;9.188;2024-03-08T14:18:13;9.40;91.00
31819;DHT22;18384;48.860;9.188;2024-03-08T14:20:41;9.50;91.20
31819;DHT22;18384;48.860;9.188;2024-03-08T14:23:07;9.50;91.10
31819;DHT22;18384;48.860;9.188;2024-03-08T14:25:34;9.50;91.00
31819;DHT22;18384;48.860;9.188;2024-03-08T14:28:00;9.50;91.00
31819;DHT22;18384;48.860;9.188;2024-03-08T14:30:33;9.60;91.00
31819;DHT22;18384;48.860;9.188;2024-03-08T14:33:05;9.60;91.20
31819;DHT22;18384;48.860;9.188;2024-03-08T14:35:31;9.60;91.10
31819;DHT22;18384;48.860;9.188;2024-03-08T14:37:58;9.60;91.00
31819;DHT22;18384;48.860;9.188;2024-03-08T14:40:24;9.60;90.70
31819;DHT22;18384;48.860;9.188;2024-03-08T14:42:52;9.60;90.90
31819;DHT22;18384;48.860;9.188;2024-03-08T14:45:18;9.60;90.90
31819;DHT22;18384;48.860;9.188;2024-03-08T14:47:46;9.60;90.80
31819;DHT22;18384;48.860;9.188;2024-03-08T14:50:19;9.70;90.60
31819;DHT22;18384;48.860;9.188;2024-03-08T14:52:46;9.70;90.30
31819;DHT22;18384;48.860;9.188;2024-03-08T14:55:19;9.70;91.00
31819;DHT22;18384;48.860;9.188;2024-03-08T14:57:48;9.70;90.90
31819;DHT22;18384;48.860;9.188;2024-03-08T15:00:17;9.70;90.80
31819;DHT22;18384;48.860;9.188;2024-03-08T15:02:55;9.70;90.80
31819;DHT22;18384;48.860;9.188;2024-03-08T15:05:22;9.70;91.00
31819;DHT22;18384;48.860;9.188;2024-03-08T15:07:58;9.70;90.90
31819;DHT22;18384;48.860;9.188;2024-03-08T15:10:26;9.70;91.00
31819;DHT22;18384;48.860;9.188;2024-03-08T15:12:54;9.70;91.20
31819;DHT22;18384;48.860;9.188;2024-03-08T15:15:22;9.80;91.10
31819;DHT22;18384;48.860;9.188;2024-03-08T15:17:50;9.80;91.20
31819;DHT22;18384;48.860;9.188;2024-03-08T15:20:17;9.80;91.20
31819;DHT22;18384;48.860;9.188;2024-03-08T15:22:51;9.80;91.10
31819;DHT22;18384;48.860;9.188;2024-03-08T15:25:21;9.80;91.20
31819;DHT22;18384;48.860;9.188;2024-03-08T15:27:54;9.80;91.30
31819;DHT22;18384;48.860;9.188;2024-03-08T15:30:21;9.80;91.10
31819;DHT22;18384;48.860;9.188;2024-03-08T15:32:56;9.80;91.50
31819;DHT22;18384;48.860;9.188;2024-03-08T15:35:24;9.80;91.40
31819;DHT22;18384;48.860;9.188;2024-03-08T15:37:54;9.80;91.00
31819;DHT22;18384;48.860;9.188;2024-03-08T15:40:23;9.80;91.20
31819;DHT22;18384;48.860;9.188;2024-03-08T15:42:58;9.80;91.20
31819;DHT22;18384;48.860;9.188;2024-03-08T15:45:24;9.80;91.40
31819;DHT22;18384;48.860;9.188;2024-03-08T15:47:54;9.80;91.20
31819;DHT22;18384;48.860;9.188;2024-03-08T15:50:20;9.80;90.90
31819;DHT22;18384;48.860;9.188;2024-03-08T15:52:49;9.80;90.90
31819;DHT22;18384;48.860;9.188;2024-03-08T15:55:16;9.80;90.80
31819;DHT22;18384;48.860;9.188;2024-03-08T15:57:49;9.80;91.20